Doniyor Tukhtasinov

Recruteur en chef - AGMK
2 Juil 2028
Dimanche
Processus

Personnalité

Adaptabilité (20) Ambition (3) Controverse (19) Loyauté (16) Pression (11) Professionnalisme (1) Sportivité (1) Tempérament (12)

Profil

Style d'entraînement Démocratique
Diplôme Continental Pro
Détermination 4
Gestion des joueurs 5
Motivation 7
Discipline 9
Satisfaction professionnelle
100%
Fatigue
0%
Rôle Recruteur en chef
Salaire 22.3K p/s
Contrat 14.03.2029

Performance

Comportement Bon
Efficacité de l'entraînement
18%
Développement des joueurs
45%
Prévention des blessures
15%
Mise en place tactique
20%

Événements récents

A participé à une réunion de recrutement 7j
A participé à une réunion de recrutement 14j
A participé à une réunion de recrutement 14j
A participé à une réunion de recrutement 21j
A participé à une réunion de recrutement 21j
A voté contre une cible de transfert 21j
A voté contre une cible de transfert 21j
A participé à une réunion de recrutement 28j

Suivi en cours

173
Joueur Club Statut Capacité Confiance Observé Dernière observation Dernier vote
Ilja Zhbanov Cobresal Refusé 90 / 94 93% 1 01.06.2028 Refuser
Denis M. Kovalevich Dinamo Brest Actif 95 / 106 40% 6 30.01.2028 -
Andrey Solovey Slavia Mozyr Actif 85 / 97 40% 3 30.01.2028 -
Razhab Magomedov Dinamo Makhachkala Actif 100 / 99 40% 1 28.01.2028 -
Omar Popov Dinamo St Petersburg Actif 74 / 82 40% 1 28.01.2028 -
François Kamano Sochi Actif 119 / 113 40% 3 26.01.2028 -
Daniil Arsentjev Orel Actif 63 / 72 40% 1 24.01.2028 -
Fortune Bassey Bunyodkor Actif 108 / 104 40% 9 21.01.2028 -
Axel Gnapi Dable Fakel Actif 88 / 109 40% 2 21.01.2028 -
Soslan Lysenko Spartak Nalchik Actif 86 / 71 40% 4 20.01.2028 -
Kirill Tsepenkov Dnepr Mogilev Actif 91 / 97 40% 6 20.01.2028 -
Serder Serderov Dinamo Makhachkala Actif 114 / 90 40% 3 19.01.2028 -
Alexey Antilevskiy Slavia Mozyr Actif 92 / 86 40% 10 18.01.2028 -
Nuriddin Nuriddinov Mashal Actif 89 / 79 40% 1 18.01.2028 -
David Kobesov Spartak Kostroma Actif 97 / 78 40% 3 16.01.2028 -
Franco Ayunta Temperley Actif 111 / 115 40% 1 16.01.2028 -
Matías Samaniego Talleres Actif 97 / 89 40% 3 15.01.2028 -
Magomed Nasibov Pobeda Actif 84 / 95 40% 4 14.01.2028 -
Said Aliev Rotor Actif 96 / 107 40% 4 14.01.2028 -
Juan David Rueda Alianza Petrolera Actif 99 / 119 40% 4 12.01.2028 -
Anton Fase PSIM Actif 111 / 103 40% 2 12.01.2028 -
Daouda Natama Minsk Actif 106 / 94 40% 3 11.01.2028 -
Ilja Rubtsov Chaika Actif 86 / 93 40% 1 11.01.2028 -
Vladislav Yakovlev Volga Actif 97 / 103 40% 2 30.12.2027 -
Jhoao Rodríguez Deportes Quindio Actif 121 / 104 40% 7 30.12.2027 -
Vladislav Yatskevich BATE Actif 109 / 94 40% 5 30.12.2027 -
Dmitriy Vashkevich Dinamo Brest Actif 99 / 85 40% 2 30.12.2027 -
Ljupce Doriev Sogdiana Actif 109 / 113 40% 5 29.12.2027 -
Riquelme Madura United Actif 102 / 98 40% 3 29.12.2027 -
Anton Betyuzhnov Dinamo Vologda Actif 87 / 81 40% 1 27.12.2027 -
Alexandr Yushin Torpedo Moscow Actif 91 / 108 40% 6 25.12.2027 -
Ilja Gruznov Khimik Actif 94 / 82 40% 3 25.12.2027 -
Júnior Brandão Madura United Actif 103 / 105 40% 4 25.12.2027 -
Oleksiy Shchebetun Qizilqum Actif 101 / 100 40% 2 24.12.2027 -
Kamran Aliev SKA Khabarovsk Actif 98 / 96 40% 5 23.12.2027 -
Santiago Apa All Boys Actif 109 / 115 40% 1 23.12.2027 -
Dejan Tumbas Persis Actif 95 / 95 40% 3 21.12.2027 -
Vladislav Fedosov Slutsk Actif 85 / 91 40% 3 20.12.2027 -
Nermin Haljeta PSIM Actif 114 / 105 40% 3 20.12.2027 -
Dmitry Kamenschikov Chernomorets Actif 107 / 94 40% 1 20.12.2027 -
Alexandr Butko Isloch Actif 80 / 84 40% 1 18.12.2027 -
Luka Đorđević Sogdiana Actif 95 / 89 40% 3 17.12.2027 -
Martin Boakye Andijon Actif 104 / 109 40% 1 17.12.2027 -
Uilliam Barros Persib Actif 100 / 99 40% 2 15.12.2027 -
Aleksej Golijanin Sokol Actif 103 / 81 40% 2 14.12.2027 -
Karen Vardanyan Dinamo Minsk Actif 99 / 99 40% 2 14.12.2027 -
Maxim Kutovoy Salyut Actif 102 / 78 40% 2 13.12.2027 -
Bobur Abdiholiqov Nasaf Actif 120 / 109 40% 2 13.12.2027 -
Daniel Barrea Godoy Cruz Actif 138 / 123 40% 1 09.12.2027 -
Timur Masharipov Obod Actif 105 / 95 40% 2 08.12.2027 -
Alexandre Ramalingom Persita Actif 112 / 106 40% 3 06.12.2027 -
Milan Ristovski Bhayangkara Presisi Actif 110 / 113 40% 6 05.12.2027 -
Luca Franco Arsenal Actif 97 / 101 40% 3 05.12.2027 -
Arseniy Zhukovskiy Slonim Actif 82 / 72 40% 2 04.12.2027 -
Jort van der Sande Bali United Actif 113 / 95 40% 4 30.11.2027 -
Diego Campos Bali United Actif 116 / 109 40% 5 29.11.2027 -
Steven Alfred Torpedo-BelAZ Actif 115 / 109 40% 9 27.11.2027 -
Ilja Stefanovich Leningradets Actif 106 / 92 40% 1 27.11.2027 -
Jonathan Okoronkwo Torpedo Moscow Actif 101 / 116 40% 2 23.11.2027 -
Alexis Gómez Persijap Actif 91 / 98 40% 3 21.11.2027 -
Amir Nematov Obod Actif 85 / 95 40% 6 18.11.2027 -
Ilya Tishurov Osipovichi Actif 76 / 71 40% 2 18.11.2027 -
Yusuf Otubanjo Nasaf Actif 114 / 111 40% 3 17.11.2027 -
Valdeci Arema Actif 100 / 105 40% 2 15.11.2027 -
Sudi Abdallah Persijap Actif 99 / 100 40% 2 15.11.2027 -
Pavel Savitskiy Neman Actif 93 / 86 40% 5 14.11.2027 -
Zoran Marušić Neftchi Actif 101 / 106 40% 3 13.11.2027 -
Guljigit Borubaev Neman Actif 101 / 97 40% 4 12.11.2027 -
Evgeniy Shevchenko Slavia Mozyr Actif 89 / 100 40% 3 11.11.2027 -
Alejandro Melo FC Lahti Actif 130 / 121 40% 4 08.11.2027 -
Maxim Maximov Slavia Mozyr Actif 88 / 85 40% 3 06.11.2027 -
Danilo Santacruz Madura United Actif 107 / 108 40% 3 04.11.2027 -
Kirill Kirilenko Dnepr Mogilev Actif 81 / 88 40% 3 04.11.2027 -
Sheriddin Boboev PSM Actif 101 / 99 40% 1 03.11.2027 -
Koldo Obieta Borneo Actif 100 / 103 40% 1 03.11.2027 -
Igor Monich Naftan Actif 83 / 77 40% 3 02.11.2027 -
Hleb Shikavka Lokomotiv Gomel Actif 72 / 69 40% 1 01.11.2027 -
Shohnazar Norbekov Mashal Actif 97 / 88 40% 3 30.10.2027 -
Kirill Zabelin Dnepr Mogilev Actif 80 / 94 40% 2 26.10.2027 -
Dominik Begić Bukhara Actif 93 / 100 40% 2 24.10.2027 -
Adrián Dalmau PSIM Actif 110 / 111 40% 1 24.10.2027 -
Luka Čumić PSM Actif 103 / 101 40% 1 22.10.2027 -
Vladislav Lozhkin Dinamo Brest Actif 104 / 101 40% 3 19.10.2027 -
Yehor Kondratiuk Kokand 1912 Actif 90 / 94 40% 1 19.10.2027 -
Timofey Simanenka Gomel Actif 88 / 100 40% 2 10.10.2027 -
Sergio Castel Persik Actif 112 / 114 40% 3 09.10.2027 -
Andrew Jung Persib Actif 108 / 103 40% 1 22.09.2027 -
Vlatko Stojanovski Mashal Actif 88 / 94 40% 1 22.09.2027 -
Flamarion Pakhtakor Actif 125 / 120 40% 2 20.09.2027 -
Edmilson Kairat Actif 113 / 115 40% 2 17.09.2027 -
Gustavo Viera Cerro Largo Actif 100 / 111 40% 2 14.09.2027 -
Ruslanbek Jiyanov Navbahor Actif 125 / 123 40% 1 08.09.2027 -
Abylaikhan Zhūmabek Atyrau Actif 107 / 99 40% 1 05.09.2027 -
Léo Natel Ordabasy Actif 109 / 114 40% 3 04.09.2027 -
Kianz Froese Semen Padang Actif 96 / 105 40% 2 21.08.2027 -
Prince Ukachukwu Irtysh Actif 107 / 100 40% 1 13.08.2027 -
Alexander Jeremejeff Persija Actif 120 / 120 40% 1 09.08.2027 -
Rubin Hebaj Tobol Actif 113 / 108 40% 2 08.08.2027 -
Ramazan Kärimov Astana Actif 98 / 97 40% 1 06.08.2027 -
Moustapha Djimet Dinamo Minsk Actif 103 / 104 40% 2 01.08.2027 -
Nikita Golub Belshina Actif 74 / 82 40% 1 01.08.2027 -
Josué Doké Narva Trans Actif 69 / 75 40% 1 30.07.2027 -
Moussa Sidibé Bhayangkara Presisi Actif 104 / 93 40% 1 26.07.2027 -
Aaron Olanare Atyrau Actif 98 / 95 40% 1 25.07.2027 -
Roman Paparyga Qizilqum Actif 101 / 93 40% 1 23.07.2027 -
Bjørn Johnsen Ordabasy Actif 108 / 109 40% 1 20.07.2027 -
Fabio Morselli Alcione Milano Actif 98 / 78 40% 1 17.07.2027 -
Andrey Okladnikov Yenisey Actif 92 / 95 40% 2 15.07.2027 -
Amine Talal Tobol Actif 111 / 99 40% 1 15.07.2027 -
Yordy Reyna Rodina Actif 116 / 112 40% 3 14.07.2027 -
Georgy Gongadze Ufa Actif 99 / 111 40% 1 12.07.2027 -
Amar Rahmanović Krylya Sovetov Actif 104 / 112 40% 6 10.07.2027 -
Surkhaikhan Abdullaev KAMAZ Actif 93 / 101 40% 2 05.07.2027 -
David Karaev KAMAZ Actif 115 / 105 40% 1 03.07.2027 -
Nikita Simdyankin KDV Tomsk Actif 87 / 90 40% 3 29.06.2027 -
Alexey Kashtanov Torpedo Moscow Actif 121 / 97 40% 3 26.06.2027 -
Mikhail Gainov Dinamo Stavropol Actif 70 / 89 40% 1 26.06.2027 -
Daniil Kondrakov KDV Tomsk Actif 102 / 78 40% 3 24.06.2027 -
Alexandr Olenev Nart Actif 100 / 90 40% 4 23.06.2027 -
Vitaly Dunay (Karpenko) Chaika Actif 85 / 88 40% 2 22.06.2027 -
Chinonso Offor Baltika Actif 119 / 107 40% 2 22.06.2027 -
Danil Akhatov Ufa Actif 103 / 89 40% 3 18.06.2027 -
Migran Ageyan Ufa Actif 106 / 100 40% 1 18.06.2027 -
Nikita Kireev Dinamo Vologda Actif 71 / 85 40% 3 16.06.2027 -
Amur Kalmykov Spartak Kostroma Actif 106 / 111 40% 2 13.06.2027 -
Dmitry Kuptsov Spartak Tambov Actif 69 / 79 40% 1 13.06.2027 -
Daniil Agureev Amkar Actif 92 / 94 40% 2 05.06.2027 -
Rashid Magomedov Neftekhimik Actif 83 / 87 40% 1 05.06.2027 -
Nikolay Rybikov Dinamo St Petersburg Actif 69 / 93 40% 2 30.05.2027 -
Petr Kosarevskiy Sibir Actif 116 / 93 40% 2 30.05.2027 -
Vladimir Iljin Sochi Actif 104 / 106 40% 2 28.05.2027 -
Stanislav Kleschuk Gomel Actif 82 / 84 40% 2 24.05.2027 -
Joaquín Bigo Tristán Suárez Actif 110 / 95 40% 2 20.05.2027 -
Anton Shitov Dinamo Vladivostok Actif 81 / 81 40% 1 19.05.2027 -
Timur Kraikov Sokol Actif 106 / 86 40% 2 18.05.2027 -
Vadim Uljanov Krylya Sovetov Actif 107 / 98 40% 1 18.05.2027 -
Temirlan Anarbekov Kairat Actif 122 / 113 40% 2 17.05.2027 -
Abduvohid Ne'matov Nasaf Actif 131 / 124 40% 2 16.05.2027 -
Maxim Borisko CSKA Moscow Actif 123 / 123 40% 1 16.05.2027 -
Alexandr Saplinov Volga Actif 97 / 92 40% 2 15.05.2027 -
Maxim Shichanin Zenit Actif 93 / 86 40% 2 12.05.2027 -
Islam Imamov SKA Khabarovsk Actif 101 / 103 40% 2 12.05.2027 -
Vadim Averkiev Orel Actif 99 / 80 40% 2 11.05.2027 -
Bogdan Ovsyannikov Orenburg Actif 122 / 99 40% 1 09.05.2027 -
Alexandr Ryabinkin Textilschik Actif 97 / 92 40% 2 07.05.2027 -
Daniil Ustimenko Tobol Actif 116 / 101 40% 1 01.05.2027 -
Georgy Natabashvili Chernomorets Actif 87 / 83 40% 1 28.04.2027 -
Vladimir Pavlov Saturn Actif 88 / 87 40% 1 27.04.2027 -
Vladimir Tsapurin SKA Khabarovsk Actif 71 / 70 40% 1 18.04.2027 -
Timur Melekestsev Arsenal Tula Actif 81 / 84 40% 2 17.04.2027 -
Ivan Lomaev Ufa Actif 116 / 119 40% 1 17.04.2027 -
Vladislav Yampolskiy Volgar Actif 82 / 89 40% 1 17.04.2027 -
Nikita Pavlov Chaika Actif 68 / 89 40% 1 16.04.2027 -
Dmitry Rebrov Volna Actif 70 / 80 40% 1 16.04.2027 -
Ivan Gulko KAMAZ Actif 94 / 76 40% 1 16.04.2027 -
Ruslan Apekov Torpedo Moscow Actif 92 / 109 40% 2 13.04.2027 -
Rinat Shakerov Volga Actif 85 / 84 40% 1 13.04.2027 -
David Byazrov Alania Actif 81 / 88 40% 1 13.04.2027 -
Rostislav Soldatenko Torpedo Moscow Actif 92 / 103 40% 1 12.04.2027 -
Daniil Konoplev Dinamo Bryansk Actif 76 / 76 40% 1 26.03.2027 -
Evgeny Voronin Volga Actif 91 / 89 40% 3 25.03.2027 -
Jacobo Alcalde SKA Khabarovsk Actif 101 / 94 40% 1 15.03.2027 -
Paolo Yrizar Chernomorets Actif 83 / 101 40% 1 14.03.2027 -
Alexey Skvortsov Actif 96 / 73 40% 2 12.03.2027 -
David Davidyan Rotor Actif 101 / 107 40% 1 05.03.2027 -
Timur Zhamaletdinov Arsenal Tula Actif 93 / 92 40% 1 04.03.2027 -
Chinedu Geoffrey Krylya Sovetov Actif 113 / 102 40% 2 28.02.2027 -
Mikhail Ignatov Sochi Actif 113 / 112 40% 3 28.02.2027 -
Mohamed Konaté Akhmat Grozny Actif 110 / 110 40% 1 24.02.2027 -
Merabi Uridia Fakel Actif 118 / 105 40% 2 21.02.2027 -
Tenton Yenne Baltika Actif 110 / 102 40% 1 16.02.2027 -
Alexandre Jesus Orenburg Actif 106 / 119 40% 1 11.02.2027 -
Vyacheslav Grulev Nizhniy Novgorod Actif 127 / 101 40% 1 10.02.2027 -